KRCA/RCA METAR and TAF weather

Enter ICAO airport designator
Station Type Date Time Source
KRCA METAR 2020/12/01 20:56 UTC NOAA

KRCA 012056Z 32032G39KT 10SM BKN031 03/M04 A3009 RMK PK WND 32045/2022 SLP209 T00261037 $


Station Type Date Time Source
KRCA Decoded METAR 2020/12/01 20:56 UTC NOAA

Ellsworth Air Force Base, SD, United States (KRCA) 44-09N 103-06W
Dec 01, 2020 - 03:56 PM EST / 2020.12.01 2056 UTC
Wind: from the NW (320 degrees) at 37 MPH (32 KT) gusting to 45 MPH (39 KT):0
Visibility: 10 mile(s):0
Sky conditions: mostly cloudy
Temperature: 36.7 F (2.6 C)
Dew Point: 25.3 F (-3.7 C)
Relative Humidity: 63%
Pressure (altimeter): 30.09 in. Hg (1018 hPa)
ob: KRCA 012056Z 32032G39KT 10SM BKN031 03/M04 A3009 RMK PK WND 32045/2022 SLP209 T00261037
cycle: 21

Station Type Date Time Source
KRCA TAF 2020/12/01 21:43 UTC NOAA

TAF
AMD KRCA 012125Z 0121/0301 31025G42KT 9999 BKN080 520002 QNH2989INS
BECMG 0201/0202 30015G30KT 9999 BKN015 OVC030 620156 510002 QNH3010INS
BECMG 0219/0220 35012G18KT 9999 BKN025 620256 QNH3010INS TX03/0121Z TNM07/0211Z

Example: see airport list